sensor_id;sensor_type;location;lat;lon;timestamp;P1;durP1;ratioP1;P2;durP2;ratioP2
11935;SDS011;6027;48.576;9.180;2022-12-19T00:01:57;55.97;;;38.97;;
11935;SDS011;6027;48.576;9.180;2022-12-19T00:04:23;59.57;;;39.93;;
11935;SDS011;6027;48.576;9.180;2022-12-19T00:06:48;56.00;;;38.83;;
11935;SDS011;6027;48.576;9.180;2022-12-19T00:09:13;57.33;;;40.63;;
11935;SDS011;6027;48.576;9.180;2022-12-19T00:11:39;57.17;;;40.07;;
11935;SDS011;6027;48.576;9.180;2022-12-19T00:14:05;54.13;;;38.53;;
11935;SDS011;6027;48.576;9.180;2022-12-19T00:16:33;56.53;;;37.93;;
11935;SDS011;6027;48.576;9.180;2022-12-19T00:18:59;59.63;;;39.80;;
11935;SDS011;6027;48.576;9.180;2022-12-19T00:21:26;55.13;;;36.60;;
11935;SDS011;6027;48.576;9.180;2022-12-19T00:23:59;54.90;;;37.10;;
11935;SDS011;6027;48.576;9.180;2022-12-19T00:26:32;59.00;;;38.80;;
11935;SDS011;6027;48.576;9.180;2022-12-19T00:29:00;52.87;;;37.03;;
11935;SDS011;6027;48.576;9.180;2022-12-19T00:31:29;58.83;;;37.40;;
11935;SDS011;6027;48.576;9.180;2022-12-19T00:33:57;56.73;;;38.47;;
11935;SDS011;6027;48.576;9.180;2022-12-19T00:36:27;56.23;;;37.57;;
11935;SDS011;6027;48.576;9.180;2022-12-19T00:38:55;55.67;;;38.67;;
11935;SDS011;6027;48.576;9.180;2022-12-19T00:41:23;56.10;;;38.57;;
11935;SDS011;6027;48.576;9.180;2022-12-19T00:43:53;56.33;;;39.30;;
11935;SDS011;6027;48.576;9.180;2022-12-19T00:46:21;57.57;;;38.87;;
11935;SDS011;6027;48.576;9.180;2022-12-19T00:48:46;56.60;;;37.37;;
11935;SDS011;6027;48.576;9.180;2022-12-19T00:51:13;54.20;;;36.97;;
11935;SDS011;6027;48.576;9.180;2022-12-19T00:53:40;54.73;;;37.03;;
11935;SDS011;6027;48.576;9.180;2022-12-19T00:56:13;52.70;;;36.13;;
11935;SDS011;6027;48.576;9.180;2022-12-19T00:58:42;53.27;;;38.23;;
11935;SDS011;6027;48.576;9.180;2022-12-19T01:01:11;58.17;;;38.20;;
11935;SDS011;6027;48.576;9.180;2022-12-19T01:03:38;52.20;;;35.93;;
11935;SDS011;6027;48.576;9.180;2022-12-19T01:06:04;55.67;;;36.10;;
11935;SDS011;6027;48.576;9.180;2022-12-19T01:08:30;53.43;;;35.97;;
11935;SDS011;6027;48.576;9.180;2022-12-19T01:10:56;56.00;;;37.60;;
11935;SDS011;6027;48.576;9.180;2022-12-19T01:13:23;53.83;;;38.43;;
11935;SDS011;6027;48.576;9.180;2022-12-19T01:15:49;51.40;;;38.23;;
11935;SDS011;6027;48.576;9.180;2022-12-19T01:18:15;53.47;;;39.10;;
11935;SDS011;6027;48.576;9.180;2022-12-19T01:20:41;55.13;;;38.07;;
11935;SDS011;6027;48.576;9.180;2022-12-19T01:23:09;52.43;;;38.13;;
11935;SDS011;6027;48.576;9.180;2022-12-19T01:25:35;55.40;;;39.73;;
11935;SDS011;6027;48.576;9.180;2022-12-19T01:28:03;61.93;;;38.93;;
11935;SDS011;6027;48.576;9.180;2022-12-19T01:30:29;52.90;;;38.50;;
11935;SDS011;6027;48.576;9.180;2022-12-19T01:32:55;53.53;;;37.67;;
11935;SDS011;6027;48.576;9.180;2022-12-19T01:35:22;52.73;;;36.67;;
11935;SDS011;6027;48.576;9.180;2022-12-19T01:37:51;54.73;;;38.40;;
11935;SDS011;6027;48.576;9.180;2022-12-19T01:40:18;49.90;;;36.00;;
11935;SDS011;6027;48.576;9.180;2022-12-19T01:42:45;51.03;;;36.10;;
11935;SDS011;6027;48.576;9.180;2022-12-19T01:47:42;52.77;;;38.00;;
11935;SDS011;6027;48.576;9.180;2022-12-19T01:50:12;51.43;;;37.33;;
11935;SDS011;6027;48.576;9.180;2022-12-19T01:52:41;50.57;;;37.10;;
11935;SDS011;6027;48.576;9.180;2022-12-19T01:55:07;50.23;;;37.43;;
11935;SDS011;6027;48.576;9.180;2022-12-19T01:57:34;50.47;;;36.87;;
11935;SDS011;6027;48.576;9.180;2022-12-19T02:00:00;51.20;;;37.23;;
11935;SDS011;6027;48.576;9.180;2022-12-19T02:02:30;52.07;;;38.73;;
11935;SDS011;6027;48.576;9.180;2022-12-19T02:04:58;51.87;;;36.97;;
11935;SDS011;6027;48.576;9.180;2022-12-19T02:07:25;50.10;;;36.53;;
11935;SDS011;6027;48.576;9.180;2022-12-19T02:09:53;49.07;;;36.27;;
11935;SDS011;6027;48.576;9.180;2022-12-19T02:12:20;52.27;;;38.27;;
11935;SDS011;6027;48.576;9.180;2022-12-19T02:14:48;129.80;;;88.33;;
11935;SDS011;6027;48.576;9.180;2022-12-19T02:31:56;52.30;;;38.23;;
11935;SDS011;6027;48.576;9.180;2022-12-19T02:34:28;54.23;;;38.70;;
11935;SDS011;6027;48.576;9.180;2022-12-19T02:37:18;42.27;;;31.00;;
11935;SDS011;6027;48.576;9.180;2022-12-19T02:39:51;54.60;;;38.17;;
11935;SDS011;6027;48.576;9.180;2022-12-19T02:42:34;56.00;;;39.07;;
11935;SDS011;6027;48.576;9.180;2022-12-19T02:45:04;49.60;;;37.80;;
11935;SDS011;6027;48.576;9.180;2022-12-19T02:47:32;49.07;;;37.97;;
11935;SDS011;6027;48.576;9.180;2022-12-19T02:49:58;54.30;;;39.77;;
11935;SDS011;6027;48.576;9.180;2022-12-19T02:54:50;53.13;;;39.33;;
11935;SDS011;6027;48.576;9.180;2022-12-19T02:57:22;57.77;;;40.00;;
11935;SDS011;6027;48.576;9.180;2022-12-19T03:00:07;55.63;;;41.03;;
11935;SDS011;6027;48.576;9.180;2022-12-19T03:02:44;55.53;;;42.27;;
11935;SDS011;6027;48.576;9.180;2022-12-19T03:05:17;53.27;;;40.77;;
11935;SDS011;6027;48.576;9.180;2022-12-19T03:10:36;50.60;;;40.27;;
11935;SDS011;6027;48.576;9.180;2022-12-19T03:15:44;52.37;;;41.00;;
11935;SDS011;6027;48.576;9.180;2022-12-19T03:18:10;53.23;;;41.70;;
11935;SDS011;6027;48.576;9.180;2022-12-19T03:23:26;54.80;;;43.57;;
11935;SDS011;6027;48.576;9.180;2022-12-19T03:25:53;54.50;;;42.30;;
11935;SDS011;6027;48.576;9.180;2022-12-19T03:28:29;55.13;;;42.47;;
11935;SDS011;6027;48.576;9.180;2022-12-19T03:31:08;52.77;;;41.23;;
11935;SDS011;6027;48.576;9.180;2022-12-19T03:33:37;52.63;;;40.40;;
11935;SDS011;6027;48.576;9.180;2022-12-19T03:36:06;51.77;;;42.00;;
11935;SDS011;6027;48.576;9.180;2022-12-19T03:38:36;55.83;;;43.30;;
11935;SDS011;6027;48.576;9.180;2022-12-19T03:41:05;55.00;;;42.50;;
11935;SDS011;6027;48.576;9.180;2022-12-19T03:43:34;55.33;;;42.63;;
11935;SDS011;6027;48.576;9.180;2022-12-19T03:46:05;54.90;;;40.77;;
11935;SDS011;6027;48.576;9.180;2022-12-19T03:48:45;55.53;;;42.23;;
11935;SDS011;6027;48.576;9.180;2022-12-19T03:51:43;56.13;;;43.33;;
11935;SDS011;6027;48.576;9.180;2022-12-19T03:54:20;60.17;;;44.67;;
11935;SDS011;6027;48.576;9.180;2022-12-19T03:56:59;53.77;;;42.07;;
11935;SDS011;6027;48.576;9.180;2022-12-19T03:59:47;56.80;;;43.30;;
11935;SDS011;6027;48.576;9.180;2022-12-19T04:02:15;55.93;;;43.37;;
11935;SDS011;6027;48.576;9.180;2022-12-19T04:04:49;56.93;;;42.20;;
11935;SDS011;6027;48.576;9.180;2022-12-19T04:07:18;55.70;;;42.83;;
11935;SDS011;6027;48.576;9.180;2022-12-19T04:09:45;54.03;;;40.67;;
11935;SDS011;6027;48.576;9.180;2022-12-19T04:12:14;54.70;;;41.63;;
11935;SDS011;6027;48.576;9.180;2022-12-19T04:14:51;56.30;;;41.73;;
11935;SDS011;6027;48.576;9.180;2022-12-19T04:20:17;58.67;;;42.13;;
11935;SDS011;6027;48.576;9.180;2022-12-19T04:25:35;57.30;;;42.67;;
11935;SDS011;6027;48.576;9.180;2022-12-19T04:28:21;57.30;;;42.67;;
11935;SDS011;6027;48.576;9.180;2022-12-19T04:30:52;55.97;;;41.77;;
11935;SDS011;6027;48.576;9.180;2022-12-19T04:33:18;55.17;;;41.53;;
11935;SDS011;6027;48.576;9.180;2022-12-19T04:35:44;53.03;;;41.93;;
11935;SDS011;6027;48.576;9.180;2022-12-19T04:38:09;57.80;;;41.00;;
11935;SDS011;6027;48.576;9.180;2022-12-19T04:40:35;55.13;;;41.83;;
11935;SDS011;6027;48.576;9.180;2022-12-19T04:43:00;57.90;;;42.03;;
11935;SDS011;6027;48.576;9.180;2022-12-19T04:45:26;56.23;;;41.67;;
11935;SDS011;6027;48.576;9.180;2022-12-19T04:47:51;58.63;;;41.90;;
11935;SDS011;6027;48.576;9.180;2022-12-19T04:50:17;56.73;;;41.00;;
11935;SDS011;6027;48.576;9.180;2022-12-19T04:52:42;59.30;;;41.17;;
11935;SDS011;6027;48.576;9.180;2022-12-19T04:55:08;61.53;;;42.67;;
11935;SDS011;6027;48.576;9.180;2022-12-19T04:57:34;56.47;;;42.20;;
11935;SDS011;6027;48.576;9.180;2022-12-19T04:59:59;57.17;;;42.10;;
11935;SDS011;6027;48.576;9.180;2022-12-19T05:02:25;61.50;;;43.90;;
11935;SDS011;6027;48.576;9.180;2022-12-19T05:04:50;60.77;;;42.27;;
11935;SDS011;6027;48.576;9.180;2022-12-19T05:07:16;56.73;;;42.43;;
11935;SDS011;6027;48.576;9.180;2022-12-19T05:09:42;59.40;;;42.83;;
11935;SDS011;6027;48.576;9.180;2022-12-19T05:12:07;60.00;;;43.63;;
11935;SDS011;6027;48.576;9.180;2022-12-19T05:14:34;58.20;;;42.47;;
11935;SDS011;6027;48.576;9.180;2022-12-19T05:16:59;74.23;;;52.50;;
11935;SDS011;6027;48.576;9.180;2022-12-19T05:19:25;64.23;;;47.40;;
11935;SDS011;6027;48.576;9.180;2022-12-19T05:21:50;69.43;;;44.70;;
11935;SDS011;6027;48.576;9.180;2022-12-19T05:24:16;66.03;;;45.97;;
11935;SDS011;6027;48.576;9.180;2022-12-19T05:26:41;70.43;;;46.97;;
11935;SDS011;6027;48.576;9.180;2022-12-19T05:29:07;69.33;;;45.03;;
11935;SDS011;6027;48.576;9.180;2022-12-19T05:31:32;73.50;;;49.87;;
11935;SDS011;6027;48.576;9.180;2022-12-19T05:33:58;77.43;;;51.73;;
11935;SDS011;6027;48.576;9.180;2022-12-19T05:36:23;71.60;;;47.83;;
11935;SDS011;6027;48.576;9.180;2022-12-19T05:38:49;87.53;;;48.13;;
11935;SDS011;6027;48.576;9.180;2022-12-19T05:41:16;95.20;;;45.37;;
11935;SDS011;6027;48.576;9.180;2022-12-19T05:43:43;99.10;;;45.67;;
11935;SDS011;6027;48.576;9.180;2022-12-19T05:46:10;128.13;;;48.80;;
11935;SDS011;6027;48.576;9.180;2022-12-19T05:48:36;114.90;;;46.97;;
11935;SDS011;6027;48.576;9.180;2022-12-19T05:51:02;115.87;;;46.70;;
11935;SDS011;6027;48.576;9.180;2022-12-19T05:53:28;108.00;;;46.03;;
11935;SDS011;6027;48.576;9.180;2022-12-19T05:56:07;87.30;;;42.13;;
11935;SDS011;6027;48.576;9.180;2022-12-19T05:58:34;91.63;;;46.37;;
11935;SDS011;6027;48.576;9.180;2022-12-19T06:01:05;117.33;;;55.00;;
11935;SDS011;6027;48.576;9.180;2022-12-19T06:03:32;104.40;;;48.27;;
11935;SDS011;6027;48.576;9.180;2022-12-19T06:06:05;97.10;;;46.50;;
11935;SDS011;6027;48.576;9.180;2022-12-19T06:08:33;108.37;;;46.80;;
11935;SDS011;6027;48.576;9.180;2022-12-19T06:10:59;106.67;;;49.17;;
11935;SDS011;6027;48.576;9.180;2022-12-19T06:13:27;92.50;;;46.73;;
11935;SDS011;6027;48.576;9.180;2022-12-19T06:16:02;98.80;;;48.37;;
11935;SDS011;6027;48.576;9.180;2022-12-19T06:18:29;104.83;;;48.13;;
11935;SDS011;6027;48.576;9.180;2022-12-19T06:21:07;92.60;;;47.77;;
11935;SDS011;6027;48.576;9.180;2022-12-19T06:23:49;100.53;;;46.03;;
11935;SDS011;6027;48.576;9.180;2022-12-19T06:26:19;136.30;;;59.60;;
11935;SDS011;6027;48.576;9.180;2022-12-19T06:28:47;92.23;;;45.33;;
11935;SDS011;6027;48.576;9.180;2022-12-19T06:31:13;97.70;;;45.93;;
11935;SDS011;6027;48.576;9.180;2022-12-19T06:33:39;119.53;;;49.33;;
11935;SDS011;6027;48.576;9.180;2022-12-19T06:36:25;109.73;;;51.47;;
11935;SDS011;6027;48.576;9.180;2022-12-19T06:38:52;118.73;;;50.67;;
11935;SDS011;6027;48.576;9.180;2022-12-19T06:41:18;105.77;;;48.70;;
11935;SDS011;6027;48.576;9.180;2022-12-19T06:44:04;98.40;;;46.63;;
11935;SDS011;6027;48.576;9.180;2022-12-19T06:46:31;124.13;;;49.50;;
11935;SDS011;6027;48.576;9.180;2022-12-19T06:48:57;113.77;;;52.87;;
11935;SDS011;6027;48.576;9.180;2022-12-19T06:51:23;123.53;;;57.37;;
11935;SDS011;6027;48.576;9.180;2022-12-19T06:53:48;104.37;;;55.57;;
11935;SDS011;6027;48.576;9.180;2022-12-19T06:56:14;100.03;;;55.97;;
11935;SDS011;6027;48.576;9.180;2022-12-19T06:58:41;96.53;;;56.77;;
11935;SDS011;6027;48.576;9.180;2022-12-19T07:01:14;87.73;;;51.80;;
11935;SDS011;6027;48.576;9.180;2022-12-19T07:03:41;91.77;;;52.60;;
11935;SDS011;6027;48.576;9.180;2022-12-19T07:06:06;84.70;;;51.40;;
11935;SDS011;6027;48.576;9.180;2022-12-19T07:08:32;82.30;;;49.17;;
11935;SDS011;6027;48.576;9.180;2022-12-19T07:10:57;90.80;;;48.67;;
11935;SDS011;6027;48.576;9.180;2022-12-19T07:13:23;73.67;;;45.07;;
11935;SDS011;6027;48.576;9.180;2022-12-19T07:15:49;83.20;;;44.97;;
11935;SDS011;6027;48.576;9.180;2022-12-19T07:18:15;74.97;;;44.33;;
11935;SDS011;6027;48.576;9.180;2022-12-19T07:20:40;95.50;;;44.90;;
11935;SDS011;6027;48.576;9.180;2022-12-19T07:23:07;83.43;;;44.10;;
11935;SDS011;6027;48.576;9.180;2022-12-19T07:25:36;86.70;;;44.70;;
11935;SDS011;6027;48.576;9.180;2022-12-19T07:28:03;77.23;;;43.57;;
11935;SDS011;6027;48.576;9.180;2022-12-19T07:30:29;76.63;;;41.10;;
11935;SDS011;6027;48.576;9.180;2022-12-19T07:32:54;80.47;;;42.07;;
11935;SDS011;6027;48.576;9.180;2022-12-19T07:35:20;72.87;;;42.20;;
11935;SDS011;6027;48.576;9.180;2022-12-19T07:37:47;81.97;;;41.70;;
11935;SDS011;6027;48.576;9.180;2022-12-19T07:40:12;84.93;;;42.83;;
11935;SDS011;6027;48.576;9.180;2022-12-19T07:42:38;79.77;;;43.07;;
11935;SDS011;6027;48.576;9.180;2022-12-19T07:45:04;93.27;;;41.77;;
11935;SDS011;6027;48.576;9.180;2022-12-19T07:47:30;76.77;;;41.00;;
11935;SDS011;6027;48.576;9.180;2022-12-19T07:49:55;84.17;;;41.67;;
11935;SDS011;6027;48.576;9.180;2022-12-19T07:52:20;76.77;;;42.00;;
11935;SDS011;6027;48.576;9.180;2022-12-19T07:54:46;95.80;;;43.93;;
11935;SDS011;6027;48.576;9.180;2022-12-19T07:57:11;103.63;;;43.17;;
11935;SDS011;6027;48.576;9.180;2022-12-19T07:59:37;97.80;;;42.47;;
11935;SDS011;6027;48.576;9.180;2022-12-19T08:02:02;86.70;;;45.83;;
11935;SDS011;6027;48.576;9.180;2022-12-19T08:04:28;91.23;;;40.80;;
11935;SDS011;6027;48.576;9.180;2022-12-19T08:06:53;82.33;;;40.47;;
11935;SDS011;6027;48.576;9.180;2022-12-19T08:09:18;81.67;;;39.17;;
11935;SDS011;6027;48.576;9.180;2022-12-19T08:11:44;87.67;;;44.40;;
11935;SDS011;6027;48.576;9.180;2022-12-19T08:14:09;88.87;;;42.27;;
11935;SDS011;6027;48.576;9.180;2022-12-19T08:16:35;95.17;;;41.70;;
11935;SDS011;6027;48.576;9.180;2022-12-19T08:19:01;76.03;;;41.37;;
11935;SDS011;6027;48.576;9.180;2022-12-19T08:21:27;85.97;;;41.07;;
11935;SDS011;6027;48.576;9.180;2022-12-19T08:23:52;85.60;;;44.80;;
11935;SDS011;6027;48.576;9.180;2022-12-19T08:26:18;91.87;;;46.50;;
11935;SDS011;6027;48.576;9.180;2022-12-19T08:28:55;85.50;;;46.43;;
11935;SDS011;6027;48.576;9.180;2022-12-19T08:31:23;91.63;;;45.40;;
11935;SDS011;6027;48.576;9.180;2022-12-19T08:33:50;73.33;;;43.53;;
11935;SDS011;6027;48.576;9.180;2022-12-19T08:36:16;83.37;;;44.77;;
11935;SDS011;6027;48.576;9.180;2022-12-19T08:38:46;81.50;;;44.97;;
11935;SDS011;6027;48.576;9.180;2022-12-19T08:41:13;85.60;;;45.10;;
11935;SDS011;6027;48.576;9.180;2022-12-19T08:43:39;70.03;;;44.70;;
11935;SDS011;6027;48.576;9.180;2022-12-19T08:46:05;68.10;;;42.87;;
11935;SDS011;6027;48.576;9.180;2022-12-19T08:48:32;67.53;;;40.20;;
11935;SDS011;6027;48.576;9.180;2022-12-19T08:51:00;63.77;;;37.43;;
11935;SDS011;6027;48.576;9.180;2022-12-19T08:53:33;65.10;;;38.70;;
11935;SDS011;6027;48.576;9.180;2022-12-19T08:56:01;63.13;;;38.73;;
11935;SDS011;6027;48.576;9.180;2022-12-19T08:58:34;66.10;;;40.13;;
11935;SDS011;6027;48.576;9.180;2022-12-19T09:01:01;78.57;;;44.90;;
11935;SDS011;6027;48.576;9.180;2022-12-19T09:03:29;64.03;;;41.90;;
11935;SDS011;6027;48.576;9.180;2022-12-19T09:05:59;66.47;;;39.57;;
11935;SDS011;6027;48.576;9.180;2022-12-19T09:08:26;56.83;;;35.37;;
11935;SDS011;6027;48.576;9.180;2022-12-19T09:11:03;54.13;;;34.63;;
11935;SDS011;6027;48.576;9.180;2022-12-19T09:13:30;71.97;;;39.90;;
11935;SDS011;6027;48.576;9.180;2022-12-19T09:16:00;70.43;;;41.87;;
11935;SDS011;6027;48.576;9.180;2022-12-19T09:18:30;73.43;;;41.60;;
11935;SDS011;6027;48.576;9.180;2022-12-19T09:20:56;64.27;;;39.77;;
11935;SDS011;6027;48.576;9.180;2022-12-19T09:23:23;74.90;;;42.67;;
11935;SDS011;6027;48.576;9.180;2022-12-19T09:25:51;63.37;;;38.17;;
11935;SDS011;6027;48.576;9.180;2022-12-19T09:28:17;58.87;;;37.90;;
11935;SDS011;6027;48.576;9.180;2022-12-19T09:30:43;63.33;;;36.10;;
11935;SDS011;6027;48.576;9.180;2022-12-19T09:33:09;60.93;;;36.17;;
11935;SDS011;6027;48.576;9.180;2022-12-19T09:35:35;58.80;;;36.60;;
11935;SDS011;6027;48.576;9.180;2022-12-19T09:38:00;64.50;;;40.00;;
11935;SDS011;6027;48.576;9.180;2022-12-19T09:40:27;62.77;;;41.00;;
11935;SDS011;6027;48.576;9.180;2022-12-19T09:43:01;61.43;;;39.40;;
11935;SDS011;6027;48.576;9.180;2022-12-19T09:45:55;62.00;;;40.37;;
11935;SDS011;6027;48.576;9.180;2022-12-19T09:48:30;63.73;;;42.57;;
11935;SDS011;6027;48.576;9.180;2022-12-19T09:50:59;60.20;;;41.43;;
11935;SDS011;6027;48.576;9.180;2022-12-19T09:53:32;63.60;;;44.87;;
11935;SDS011;6027;48.576;9.180;2022-12-19T09:56:04;70.40;;;45.43;;
11935;SDS011;6027;48.576;9.180;2022-12-19T09:58:40;68.67;;;45.80;;
11935;SDS011;6027;48.576;9.180;2022-12-19T10:01:54;71.20;;;45.83;;
11935;SDS011;6027;48.576;9.180;2022-12-19T10:04:11;71.00;;;46.53;;
11935;SDS011;6027;48.576;9.180;2022-12-19T10:06:49;69.07;;;47.00;;
11935;SDS011;6027;48.576;9.180;2022-12-19T10:09:16;73.43;;;48.03;;
11935;SDS011;6027;48.576;9.180;2022-12-19T10:20:20;78.73;;;50.07;;
11935;SDS011;6027;48.576;9.180;2022-12-19T10:31:16;68.47;;;45.60;;
11935;SDS011;6027;48.576;9.180;2022-12-19T10:36:36;73.70;;;51.10;;
11935;SDS011;6027;48.576;9.180;2022-12-19T10:39:20;66.90;;;46.43;;
11935;SDS011;6027;48.576;9.180;2022-12-19T10:41:54;80.37;;;51.97;;
11935;SDS011;6027;48.576;9.180;2022-12-19T10:44:26;71.53;;;47.63;;
11935;SDS011;6027;48.576;9.180;2022-12-19T10:46:58;61.17;;;41.70;;
11935;SDS011;6027;48.576;9.180;2022-12-19T10:49:25;58.37;;;40.30;;
11935;SDS011;6027;48.576;9.180;2022-12-19T10:54:21;64.43;;;38.93;;
11935;SDS011;6027;48.576;9.180;2022-12-19T10:56:47;54.43;;;36.57;;
11935;SDS011;6027;48.576;9.180;2022-12-19T10:59:16;50.60;;;33.83;;
11935;SDS011;6027;48.576;9.180;2022-12-19T11:01:44;51.43;;;33.83;;
11935;SDS011;6027;48.576;9.180;2022-12-19T11:04:29;50.57;;;33.10;;
11935;SDS011;6027;48.576;9.180;2022-12-19T11:09:29;46.63;;;31.23;;
11935;SDS011;6027;48.576;9.180;2022-12-19T11:12:16;51.23;;;32.20;;
11935;SDS011;6027;48.576;9.180;2022-12-19T11:14:43;43.97;;;29.27;;
11935;SDS011;6027;48.576;9.180;2022-12-19T11:17:25;43.97;;;29.43;;
11935;SDS011;6027;48.576;9.180;2022-12-19T11:20:00;47.20;;;31.73;;
11935;SDS011;6027;48.576;9.180;2022-12-19T11:22:35;44.00;;;28.93;;
11935;SDS011;6027;48.576;9.180;2022-12-19T11:25:01;38.10;;;26.57;;
11935;SDS011;6027;48.576;9.180;2022-12-19T11:27:41;34.53;;;25.30;;
11935;SDS011;6027;48.576;9.180;2022-12-19T11:30:27;41.23;;;26.77;;
11935;SDS011;6027;48.576;9.180;2022-12-19T11:33:14;39.57;;;27.80;;
11935;SDS011;6027;48.576;9.180;2022-12-19T11:35:48;40.20;;;28.27;;
11935;SDS011;6027;48.576;9.180;2022-12-19T11:38:15;40.57;;;26.87;;
11935;SDS011;6027;48.576;9.180;2022-12-19T11:40:47;36.97;;;28.33;;
11935;SDS011;6027;48.576;9.180;2022-12-19T11:43:26;40.13;;;28.47;;
11935;SDS011;6027;48.576;9.180;2022-12-19T11:46:00;37.03;;;28.13;;
11935;SDS011;6027;48.576;9.180;2022-12-19T11:54:14;46.50;;;30.90;;
11935;SDS011;6027;48.576;9.180;2022-12-19T11:56:46;40.17;;;30.70;;
11935;SDS011;6027;48.576;9.180;2022-12-19T12:01:51;37.30;;;30.10;;
11935;SDS011;6027;48.576;9.180;2022-12-19T12:04:36;39.90;;;30.00;;
11935;SDS011;6027;48.576;9.180;2022-12-19T12:07:22;41.30;;;29.67;;
11935;SDS011;6027;48.576;9.180;2022-12-19T12:21:23;38.20;;;29.47;;
11935;SDS011;6027;48.576;9.180;2022-12-19T12:24:12;38.57;;;28.00;;
11935;SDS011;6027;48.576;9.180;2022-12-19T12:30:08;43.10;;;30.53;;
11935;SDS011;6027;48.576;9.180;2022-12-19T12:33:12;45.30;;;31.20;;
11935;SDS011;6027;48.576;9.180;2022-12-19T12:35:50;43.33;;;31.53;;
11935;SDS011;6027;48.576;9.180;2022-12-19T12:46:25;44.40;;;30.13;;
11935;SDS011;6027;48.576;9.180;2022-12-19T12:48:57;43.17;;;30.70;;
11935;SDS011;6027;48.576;9.180;2022-12-19T12:51:29;38.57;;;30.33;;
11935;SDS011;6027;48.576;9.180;2022-12-19T12:54:04;39.90;;;30.33;;
11935;SDS011;6027;48.576;9.180;2022-12-19T12:56:35;45.10;;;29.33;;
11935;SDS011;6027;48.576;9.180;2022-12-19T12:59:02;39.97;;;29.53;;
11935;SDS011;6027;48.576;9.180;2022-12-19T13:01:39;47.33;;;29.63;;
11935;SDS011;6027;48.576;9.180;2022-12-19T13:06:38;42.30;;;31.63;;
11935;SDS011;6027;48.576;9.180;2022-12-19T13:09:32;46.73;;;31.83;;
11935;SDS011;6027;48.576;9.180;2022-12-19T13:28:14;52.93;;;35.50;;
11935;SDS011;6027;48.576;9.180;2022-12-19T13:33:43;52.87;;;36.07;;
11935;SDS011;6027;48.576;9.180;2022-12-19T13:36:45;54.50;;;38.47;;
11935;SDS011;6027;48.576;9.180;2022-12-19T13:39:27;50.97;;;37.50;;
11935;SDS011;6027;48.576;9.180;2022-12-19T13:42:11;51.73;;;37.03;;
11935;SDS011;6027;48.576;9.180;2022-12-19T13:45:03;49.23;;;36.70;;
11935;SDS011;6027;48.576;9.180;2022-12-19T13:47:34;46.57;;;34.97;;
11935;SDS011;6027;48.576;9.180;2022-12-19T13:50:25;42.40;;;33.27;;
11935;SDS011;6027;48.576;9.180;2022-12-19T13:52:49;49.60;;;34.43;;
11935;SDS011;6027;48.576;9.180;2022-12-19T13:55:15;50.37;;;34.43;;
11935;SDS011;6027;48.576;9.180;2022-12-19T13:57:41;47.33;;;32.17;;
11935;SDS011;6027;48.576;9.180;2022-12-19T14:00:08;47.30;;;32.10;;
11935;SDS011;6027;48.576;9.180;2022-12-19T14:02:42;47.33;;;35.30;;
11935;SDS011;6027;48.576;9.180;2022-12-19T14:05:33;46.27;;;33.63;;
11935;SDS011;6027;48.576;9.180;2022-12-19T14:08:01;53.60;;;42.70;;
11935;SDS011;6027;48.576;9.180;2022-12-19T14:10:31;56.10;;;44.53;;
11935;SDS011;6027;48.576;9.180;2022-12-19T14:13:13;48.57;;;35.33;;
11935;SDS011;6027;48.576;9.180;2022-12-19T14:16:01;46.57;;;33.93;;
11935;SDS011;6027;48.576;9.180;2022-12-19T14:18:29;44.20;;;33.00;;
11935;SDS011;6027;48.576;9.180;2022-12-19T14:24:12;40.43;;;29.87;;
11935;SDS011;6027;48.576;9.180;2022-12-19T14:26:41;37.10;;;29.83;;
11935;SDS011;6027;48.576;9.180;2022-12-19T14:29:29;50.40;;;31.30;;
11935;SDS011;6027;48.576;9.180;2022-12-19T14:31:59;44.00;;;30.70;;
11935;SDS011;6027;48.576;9.180;2022-12-19T14:34:26;42.43;;;31.17;;
11935;SDS011;6027;48.576;9.180;2022-12-19T14:36:55;39.40;;;28.83;;
11935;SDS011;6027;48.576;9.180;2022-12-19T14:39:29;48.93;;;33.27;;
11935;SDS011;6027;48.576;9.180;2022-12-19T14:44:50;63.57;;;51.90;;
11935;SDS011;6027;48.576;9.180;2022-12-19T14:47:24;47.30;;;35.37;;
11935;SDS011;6027;48.576;9.180;2022-12-19T14:49:56;47.90;;;35.13;;
11935;SDS011;6027;48.576;9.180;2022-12-19T14:52:32;40.90;;;30.80;;
11935;SDS011;6027;48.576;9.180;2022-12-19T14:57:45;37.83;;;27.13;;
11935;SDS011;6027;48.576;9.180;2022-12-19T15:02:51;52.10;;;37.57;;
11935;SDS011;6027;48.576;9.180;2022-12-19T15:05:17;43.57;;;31.10;;
11935;SDS011;6027;48.576;9.180;2022-12-19T15:07:45;31.83;;;24.97;;
11935;SDS011;6027;48.576;9.180;2022-12-19T15:10:21;34.03;;;25.83;;
11935;SDS011;6027;48.576;9.180;2022-12-19T15:18:16;34.93;;;24.10;;
11935;SDS011;6027;48.576;9.180;2022-12-19T15:20:44;32.70;;;25.27;;
11935;SDS011;6027;48.576;9.180;2022-12-19T15:23:10;37.80;;;26.33;;
11935;SDS011;6027;48.576;9.180;2022-12-19T15:25:35;51.23;;;31.53;;
11935;SDS011;6027;48.576;9.180;2022-12-19T15:28:04;48.77;;;30.63;;
11935;SDS011;6027;48.576;9.180;2022-12-19T15:30:37;44.47;;;30.30;;
11935;SDS011;6027;48.576;9.180;2022-12-19T15:33:14;46.33;;;31.20;;
11935;SDS011;6027;48.576;9.180;2022-12-19T15:35:40;45.07;;;29.07;;
11935;SDS011;6027;48.576;9.180;2022-12-19T15:38:06;37.53;;;27.27;;
11935;SDS011;6027;48.576;9.180;2022-12-19T15:40:31;39.43;;;28.13;;
11935;SDS011;6027;48.576;9.180;2022-12-19T15:42:57;37.13;;;28.63;;
11935;SDS011;6027;48.576;9.180;2022-12-19T15:45:23;40.27;;;30.97;;
11935;SDS011;6027;48.576;9.180;2022-12-19T15:47:48;65.20;;;43.70;;
11935;SDS011;6027;48.576;9.180;2022-12-19T15:50:18;77.43;;;48.27;;
11935;SDS011;6027;48.576;9.180;2022-12-19T15:52:46;44.47;;;28.40;;
11935;SDS011;6027;48.576;9.180;2022-12-19T15:55:15;39.90;;;29.60;;
11935;SDS011;6027;48.576;9.180;2022-12-19T15:57:53;39.77;;;28.63;;
11935;SDS011;6027;48.576;9.180;2022-12-19T16:00:23;46.47;;;32.50;;
11935;SDS011;6027;48.576;9.180;2022-12-19T16:02:53;43.50;;;31.57;;
11935;SDS011;6027;48.576;9.180;2022-12-19T16:05:19;37.67;;;29.57;;
11935;SDS011;6027;48.576;9.180;2022-12-19T16:07:45;43.57;;;31.30;;
11935;SDS011;6027;48.576;9.180;2022-12-19T16:10:13;43.33;;;30.03;;
11935;SDS011;6027;48.576;9.180;2022-12-19T16:12:43;36.17;;;27.30;;
11935;SDS011;6027;48.576;9.180;2022-12-19T16:15:28;34.57;;;27.73;;
11935;SDS011;6027;48.576;9.180;2022-12-19T16:17:56;32.80;;;28.43;;
11935;SDS011;6027;48.576;9.180;2022-12-19T16:20:27;39.57;;;30.63;;
11935;SDS011;6027;48.576;9.180;2022-12-19T16:22:55;34.37;;;29.53;;
11935;SDS011;6027;48.576;9.180;2022-12-19T16:25:21;35.73;;;28.73;;
11935;SDS011;6027;48.576;9.180;2022-12-19T16:27:58;38.17;;;28.83;;
11935;SDS011;6027;48.576;9.180;2022-12-19T16:30:29;35.53;;;26.93;;
11935;SDS011;6027;48.576;9.180;2022-12-19T16:32:57;34.80;;;27.73;;
11935;SDS011;6027;48.576;9.180;2022-12-19T16:35:23;34.43;;;27.13;;
11935;SDS011;6027;48.576;9.180;2022-12-19T16:37:50;32.03;;;25.77;;
11935;SDS011;6027;48.576;9.180;2022-12-19T16:40:17;33.60;;;25.93;;
11935;SDS011;6027;48.576;9.180;2022-12-19T16:42:45;45.33;;;34.87;;
11935;SDS011;6027;48.576;9.180;2022-12-19T16:45:22;49.17;;;37.97;;
11935;SDS011;6027;48.576;9.180;2022-12-19T16:47:49;190.57;;;117.07;;
11935;SDS011;6027;48.576;9.180;2022-12-19T16:52:43;56.23;;;40.80;;
11935;SDS011;6027;48.576;9.180;2022-12-19T16:55:08;51.50;;;40.37;;
11935;SDS011;6027;48.576;9.180;2022-12-19T16:57:35;47.93;;;41.27;;
11935;SDS011;6027;48.576;9.180;2022-12-19T17:00:00;53.03;;;44.57;;
11935;SDS011;6027;48.576;9.180;2022-12-19T17:02:34;48.53;;;38.40;;